Time;durP1;ratioP1;P1;durP2;ratioP2;P2;SDS_P1;SDS_P2;PMS_P1;PMS_P2;Temp;Humidity;BMP_temperature;BMP_pressure;BME280_temperature;BME280_humidity;BME280_pressure;Samples;Min_cycle;Max_cycle;Signal;HPM_P1;HPM_P2
2024/04/07 00:00:22;;;;;;;4.57;4.17;;;18.70;99.90;;;;;;5060623;28;20489;-73
2024/04/07 00:02:50;;;;;;;3.90;3.60;;;18.70;99.90;;;;;;5055493;28;20455;-72
2024/04/07 00:05:22;;;;;;;3.83;3.50;;;18.60;99.90;;;;;;5055781;28;20545;-72
2024/04/07 00:07:52;;;;;;;4.07;3.77;;;18.60;99.90;;;;;;5055674;28;20475;-73
2024/04/07 00:10:18;;;;;;;4.20;3.90;;;18.60;99.90;;;;;;5055444;28;20478;-74
2024/04/07 00:12:45;;;;;;;4.00;3.70;;;18.60;99.90;;;;;;5055902;28;20459;-73
2024/04/07 00:15:12;;;;;;;3.83;3.53;;;18.60;99.90;;;;;;5055139;28;20712;-73
2024/04/07 00:17:39;;;;;;;4.20;3.90;;;18.50;99.90;;;;;;5055517;28;20455;-72
2024/04/07 00:20:07;;;;;;;4.27;3.70;;;18.50;99.90;;;;;;5055606;28;20467;-72
2024/04/07 00:22:34;;;;;;;4.70;4.30;;;18.50;99.90;;;;;;5055035;28;20493;-74
2024/04/07 00:24:59;;;;;;;6.13;5.37;;;18.50;99.90;;;;;;5055722;28;20482;-72
2024/04/07 00:27:27;;;;;;;6.20;5.50;;;18.40;99.90;;;;;;5054959;28;20464;-73
2024/04/07 00:29:53;;;;;;;5.30;4.90;;;18.40;99.90;;;;;;5055252;28;20532;-72
2024/04/07 00:32:21;;;;;;;5.47;5.03;;;18.40;99.90;;;;;;5056036;28;20467;-73
2024/04/07 00:34:51;;;;;;;10.57;9.53;;;18.40;99.90;;;;;;5055300;28;20725;-73
2024/04/07 00:37:17;;;;;;;8.77;8.03;;;18.30;99.90;;;;;;5054549;28;20467;-73
2024/04/07 00:39:45;;;;;;;7.50;6.87;;;18.30;99.90;;;;;;5055329;28;20538;-72
2024/04/07 00:45:36;;;;;;;7.43;6.43;;;18.30;99.90;;;;;;5029871;28;20470;-73
2024/04/07 00:48:04;;;;;;;7.17;6.47;;;18.20;99.90;;;;;;5054764;28;20463;-73
2024/04/07 00:50:32;;;;;;;5.80;5.40;;;18.20;99.90;;;;;;5055223;28;20470;-73
2024/04/07 00:52:59;;;;;;;6.17;5.67;;;18.20;99.90;;;;;;5054513;28;20490;-73
2024/04/07 00:55:26;;;;;;;5.17;4.77;;;18.20;99.90;;;;;;5053653;28;20474;-72
2024/04/07 00:57:52;;;;;;;5.47;5.03;;;18.20;99.90;;;;;;5054619;28;20474;-72
2024/04/07 01:00:19;;;;;;;6.00;5.03;;;18.20;99.90;;;;;;5054290;28;20459;-72
2024/04/07 01:02:45;;;;;;;6.10;5.60;;;18.10;99.90;;;;;;5055028;28;20832;-72
2024/04/07 01:05:14;;;;;;;6.23;5.63;;;18.10;99.90;;;;;;5054305;28;20459;-72
2024/04/07 01:07:40;;;;;;;5.80;5.30;;;18.10;99.90;;;;;;5054481;28;20467;-72
2024/04/07 01:10:09;;;;;;;6.43;5.83;;;18.10;99.90;;;;;;5054369;28;20475;-72
2024/04/07 01:12:35;;;;;;;6.00;5.33;;;18.10;99.90;;;;;;5053901;28;20459;-72
2024/04/07 01:15:02;;;;;;;5.33;4.83;;;18.10;99.90;;;;;;5054139;28;20478;-72
2024/04/07 01:17:28;;;;;;;4.80;4.40;;;18.00;99.90;;;;;;5054414;28;20463;-72
2024/04/07 01:19:56;;;;;;;5.57;4.93;;;18.00;99.90;;;;;;5054536;28;20810;-72
2024/04/07 01:22:25;;;;;;;5.33;4.50;;;18.00;99.90;;;;;;5057835;28;20454;-72
2024/04/07 01:24:53;;;;;;;7.03;5.20;;;18.00;99.90;;;;;;5058824;28;20467;-73
2024/04/07 01:27:19;;;;;;;5.10;4.70;;;18.00;99.90;;;;;;5053663;28;20579;-72
2024/04/07 01:29:46;;;;;;;4.90;4.57;;;18.10;99.90;;;;;;5054475;28;20542;-73
2024/04/07 01:32:12;;;;;;;4.93;4.40;;;18.10;99.90;;;;;;5053912;28;20229;-73
2024/04/07 01:34:39;;;;;;;5.50;5.00;;;18.00;99.90;;;;;;5053824;28;20837;-73
2024/04/07 01:37:05;;;;;;;4.60;4.20;;;18.10;99.90;;;;;;5053802;28;20467;-72
2024/04/07 01:39:32;;;;;;;5.40;4.90;;;18.10;99.90;;;;;;5054225;28;20470;-73
2024/04/07 01:41:59;;;;;;;5.10;4.60;;;18.10;99.90;;;;;;5054113;28;20489;-72
2024/04/07 01:44:26;;;;;;;6.13;5.63;;;18.10;99.90;;;;;;5057238;28;20545;-72
2024/04/07 01:46:52;;;;;;;4.43;4.07;;;18.00;99.90;;;;;;5058431;28;20467;-73
2024/04/07 01:49:19;;;;;;;5.00;4.50;;;18.00;99.90;;;;;;5053367;28;20993;-73
2024/04/07 01:51:45;;;;;;;4.83;4.43;;;18.10;99.90;;;;;;5054034;28;20467;-74
2024/04/07 01:54:12;;;;;;;5.57;5.07;;;18.10;99.90;;;;;;5053450;28;20473;-73
2024/04/07 01:56:38;;;;;;;4.50;4.20;;;18.10;99.90;;;;;;5053711;28;20479;-74
2024/04/07 01:59:07;;;;;;;5.47;4.57;;;18.10;99.90;;;;;;5053243;28;20470;-73
2024/04/07 02:01:33;;;;;;;6.50;5.47;;;18.20;99.90;;;;;;5053579;28;20228;-74
2024/04/07 02:04:00;;;;;;;5.53;4.53;;;18.10;99.90;;;;;;5053731;28;20463;-73
2024/04/07 02:06:26;;;;;;;6.50;5.10;;;18.20;99.90;;;;;;5053182;28;20936;-72
2024/04/07 02:08:57;;;;;;;4.63;4.33;;;18.20;99.90;;;;;;5053638;28;20463;-72
2024/04/07 02:11:23;;;;;;;5.40;5.00;;;18.20;99.90;;;;;;5052265;28;20816;-72
2024/04/07 02:13:50;;;;;;;4.90;4.50;;;18.20;99.90;;;;;;5053358;28;20462;-73
2024/04/07 02:16:17;;;;;;;4.30;3.97;;;18.30;99.90;;;;;;5052788;28;20503;-72
2024/04/07 02:18:44;;;;;;;5.53;4.90;;;18.20;99.90;;;;;;5053587;28;20494;-73
2024/04/07 02:21:11;;;;;;;6.80;4.60;;;18.20;99.90;;;;;;5052801;28;20471;-73
2024/04/07 02:23:38;;;;;;;4.80;4.40;;;18.30;99.90;;;;;;5053391;28;20468;-73
2024/04/07 02:26:07;;;;;;;5.00;4.10;;;18.30;99.90;;;;;;5052220;28;20815;-73
2024/04/07 02:28:34;;;;;;;5.33;4.93;;;18.30;99.90;;;;;;5052406;28;20525;-73
2024/04/07 02:31:00;;;;;;;4.00;3.70;;;18.30;99.90;;;;;;5053189;28;20696;-72
2024/04/07 02:33:29;;;;;;;6.80;4.60;;;18.30;99.90;;;;;;5052982;28;20973;-72
2024/04/07 02:35:57;;;;;;;6.50;5.00;;;18.30;99.90;;;;;;5052963;28;20532;-72
2024/04/07 02:38:24;;;;;;;4.87;4.47;;;18.30;99.90;;;;;;5052364;28;20546;-73
2024/04/07 02:40:50;;;;;;;5.00;4.60;;;18.40;99.90;;;;;;5052932;28;20467;-72
2024/04/07 02:43:17;;;;;;;4.80;4.50;;;18.40;99.90;;;;;;5052402;28;20804;-73
2024/04/07 02:48:29;;;;;;;4.10;3.80;;;18.40;99.90;;;;;;5052460;28;21068;-73
2024/04/07 02:50:57;;;;;;;4.83;4.43;;;18.40;99.90;;;;;;5047188;28;20478;-73
2024/04/07 02:53:24;;;;;;;4.80;4.27;;;18.30;99.90;;;;;;5061989;28;20544;-73
2024/04/07 02:55:51;;;;;;;5.10;4.70;;;18.30;99.90;;;;;;5052798;28;20498;-74
2024/04/07 02:58:18;;;;;;;5.10;4.80;;;18.30;99.90;;;;;;5052081;28;20486;-73
2024/04/07 03:00:48;;;;;;;4.73;4.30;;;18.30;99.90;;;;;;5052437;28;21153;-73
2024/04/07 03:03:13;;;;;;;4.80;4.40;;;18.20;99.90;;;;;;5052537;28;20469;-72
2024/04/07 03:05:42;;;;;;;4.70;4.30;;;18.20;99.90;;;;;;5052164;28;20522;-74
2024/04/07 03:08:08;;;;;;;4.97;4.57;;;18.20;99.90;;;;;;5052407;28;20542;-73
2024/04/07 03:10:35;;;;;;;5.37;4.90;;;18.20;99.90;;;;;;5052323;28;20831;-73
2024/04/07 03:13:00;;;;;;;5.77;4.73;;;18.20;99.90;;;;;;5052325;28;20521;-74
2024/04/07 03:15:31;;;;;;;5.13;4.73;;;18.20;99.90;;;;;;5051925;28;20985;-73
2024/04/07 03:17:57;;;;;;;7.07;5.07;;;18.20;99.90;;;;;;5052523;28;20854;-73
2024/04/07 03:20:24;;;;;;;5.40;4.50;;;18.20;99.90;;;;;;5051975;28;20490;-74
2024/04/07 03:22:51;;;;;;;4.43;4.03;;;18.10;99.90;;;;;;5052235;28;20467;-73
2024/04/07 03:25:18;;;;;;;6.00;4.80;;;18.10;99.90;;;;;;5052333;28;20969;-72
2024/04/07 03:27:45;;;;;;;4.83;4.47;;;18.10;99.90;;;;;;5051727;28;20467;-71
2024/04/07 03:30:12;;;;;;;4.30;4.00;;;18.10;99.90;;;;;;5052142;28;20538;-72
2024/04/07 03:32:38;;;;;;;4.70;4.30;;;18.10;99.90;;;;;;5051982;28;20467;-72
2024/04/07 03:35:05;;;;;;;5.00;4.53;;;18.10;99.90;;;;;;5052271;28;20474;-72
2024/04/07 03:37:32;;;;;;;5.67;5.00;;;18.10;99.90;;;;;;5055182;28;20463;-72
2024/04/07 03:40:00;;;;;;;4.03;3.63;;;18.10;99.90;;;;;;5056530;28;20459;-72
2024/04/07 03:42:27;;;;;;;4.10;3.43;;;18.10;99.90;;;;;;5055939;28;20470;-72
2024/04/07 03:44:55;;;;;;;4.30;3.90;;;18.10;99.90;;;;;;5056100;28;20464;-72
2024/04/07 03:47:21;;;;;;;4.40;4.00;;;18.20;99.90;;;;;;5056136;28;20463;-72
2024/04/07 03:49:48;;;;;;;4.63;4.33;;;18.20;99.90;;;;;;5055724;28;20451;-72
2024/04/07 03:52:13;;;;;;;4.40;4.00;;;18.20;99.90;;;;;;5056193;28;20235;-72
2024/04/07 03:54:40;;;;;;;5.20;4.23;;;18.20;99.90;;;;;;5055749;28;20463;-72
2024/04/07 03:57:07;;;;;;;3.67;3.40;;;18.20;99.90;;;;;;5056080;28;20482;-72
2024/04/07 03:59:34;;;;;;;4.83;4.50;;;18.20;99.90;;;;;;5055475;28;20478;-72
2024/04/07 04:02:00;;;;;;;4.80;4.40;;;18.20;99.90;;;;;;5055834;28;20822;-72
2024/04/07 04:04:27;;;;;;;5.00;4.20;;;18.20;99.90;;;;;;5055439;28;20481;-73
2024/04/07 04:06:53;;;;;;;4.73;4.17;;;18.20;99.90;;;;;;5056122;28;20463;-72
2024/04/07 04:09:21;;;;;;;5.07;4.67;;;18.20;99.90;;;;;;5055536;28;20953;-72
2024/04/07 04:11:47;;;;;;;7.00;4.37;;;18.10;99.90;;;;;;5055580;28;20459;-72
2024/04/07 04:14:15;;;;;;;6.33;4.43;;;18.10;99.90;;;;;;5055740;28;20809;-74
2024/04/07 04:16:41;;;;;;;5.53;5.00;;;18.10;99.90;;;;;;5055044;28;20479;-73
2024/04/07 04:19:09;;;;;;;4.60;4.00;;;18.10;99.90;;;;;;5055919;28;20477;-73
2024/04/07 04:21:35;;;;;;;3.93;3.63;;;18.10;99.90;;;;;;5055172;28;20509;-73
2024/04/07 04:24:03;;;;;;;6.30;4.83;;;18.10;99.90;;;;;;5055506;28;21114;-73
2024/04/07 04:26:29;;;;;;;4.80;4.40;;;18.10;99.90;;;;;;5055173;28;20821;-73
2024/04/07 04:28:58;;;;;;;4.53;4.13;;;18.10;99.90;;;;;;5055388;28;20474;-72
2024/04/07 04:31:25;;;;;;;4.17;3.70;;;18.10;99.90;;;;;;5055263;28;20473;-73
2024/04/07 04:33:52;;;;;;;5.17;3.70;;;18.00;99.90;;;;;;5075124;28;20809;-73
2024/04/07 04:36:18;;;;;;;4.20;3.90;;;18.00;99.90;;;;;;5075107;28;20485;-74
2024/04/07 04:38:45;;;;;;;4.80;4.40;;;18.00;99.90;;;;;;5074958;28;20462;-73
2024/04/07 04:41:11;;;;;;;7.20;4.40;;;18.00;99.90;;;;;;5075229;28;20462;-73
2024/04/07 04:43:38;;;;;;;4.47;4.17;;;18.10;99.90;;;;;;5074650;28;20993;-74
2024/04/07 04:46:06;;;;;;;5.97;4.50;;;18.00;99.90;;;;;;5075068;28;20473;-74
2024/04/07 04:48:35;;;;;;;4.63;4.33;;;18.00;99.90;;;;;;5073517;28;20467;-73
2024/04/07 04:51:02;;;;;;;5.93;5.43;;;18.00;99.90;;;;;;5074926;28;20470;-72
2024/04/07 04:53:29;;;;;;;4.30;4.00;;;17.90;99.90;;;;;;5074719;28;21056;-72
2024/04/07 04:56:01;;;;;;;4.73;4.30;;;18.00;99.90;;;;;;5075044;28;20498;-72
2024/04/07 04:58:29;;;;;;;4.93;4.53;;;18.00;99.90;;;;;;5074722;28;20494;-72
2024/04/07 05:00:55;;;;;;;4.50;4.10;;;17.90;99.90;;;;;;5058012;28;20482;-73
2024/04/07 05:03:23;;;;;;;4.60;4.20;;;18.00;99.90;;;;;;5059694;28;20544;-73
2024/04/07 05:05:51;;;;;;;4.00;3.60;;;17.90;99.90;;;;;;5054265;28;20870;-73
2024/04/07 05:08:17;;;;;;;4.17;3.77;;;17.90;99.90;;;;;;5054513;28;20463;-73
2024/04/07 05:10:43;;;;;;;4.90;4.50;;;17.90;99.90;;;;;;5054297;28;20473;-73
2024/04/07 05:13:11;;;;;;;4.30;3.70;;;18.00;99.90;;;;;;5054615;28;20793;-73
2024/04/07 05:15:37;;;;;;;6.20;5.00;;;17.90;99.90;;;;;;5054182;28;20525;-73
2024/04/07 05:18:04;;;;;;;4.00;3.70;;;17.90;99.90;;;;;;5054335;28;20966;-73
2024/04/07 05:20:30;;;;;;;4.30;4.00;;;17.90;99.90;;;;;;5054632;28;20482;-73
2024/04/07 05:22:58;;;;;;;4.17;3.80;;;17.90;99.90;;;;;;5054089;28;20451;-73
2024/04/07 05:25:25;;;;;;;5.80;3.80;;;17.90;99.90;;;;;;5054618;28;20988;-73
2024/04/07 05:27:52;;;;;;;4.23;3.83;;;17.90;99.90;;;;;;5053904;28;20474;-73
2024/04/07 05:30:18;;;;;;;4.13;3.80;;;18.00;99.90;;;;;;5054279;28;20937;-73
2024/04/07 05:32:45;;;;;;;5.20;4.57;;;18.00;99.90;;;;;;5053642;28;20467;-73
2024/04/07 05:35:11;;;;;;;3.80;3.50;;;18.00;99.90;;;;;;5053628;28;20460;-72
2024/04/07 05:37:38;;;;;;;7.00;4.00;;;18.00;99.90;;;;;;5053619;28;20489;-72
2024/04/07 05:40:06;;;;;;;3.90;3.60;;;18.00;99.90;;;;;;5054296;28;20463;-72
2024/04/07 05:42:32;;;;;;;4.37;3.97;;;18.10;99.90;;;;;;5054135;28;20486;-73
2024/04/07 05:44:58;;;;;;;4.50;4.10;;;18.10;99.90;;;;;;5053675;28;20463;-72
2024/04/07 05:47:25;;;;;;;4.60;3.90;;;18.20;99.90;;;;;;5053847;28;20490;-72
2024/04/07 05:49:51;;;;;;;6.63;3.63;;;18.20;99.90;;;;;;5053753;28;20467;-73
2024/04/07 05:52:19;;;;;;;4.40;4.10;;;18.30;99.90;;;;;;5053782;28;20469;-71
2024/04/07 05:54:46;;;;;;;4.30;3.90;;;18.30;99.90;;;;;;5053448;28;20479;-73
2024/04/07 05:57:14;;;;;;;3.90;3.50;;;18.30;99.90;;;;;;5053720;28;20487;-73
2024/04/07 05:59:40;;;;;;;4.17;3.37;;;18.40;99.90;;;;;;5053092;28;20896;-73
2024/04/07 06:02:08;;;;;;;3.77;3.47;;;18.50;99.90;;;;;;5053658;28;20467;-73
2024/04/07 06:04:34;;;;;;;4.47;3.93;;;18.50;99.90;;;;;;5053789;28;20501;-73
2024/04/07 06:07:01;;;;;;;4.17;3.77;;;18.60;99.90;;;;;;5053029;28;20473;-72
2024/04/07 06:09:28;;;;;;;4.60;4.20;;;18.60;99.90;;;;;;5053489;28;20468;-72
2024/04/07 06:11:55;;;;;;;5.40;5.00;;;18.60;99.90;;;;;;5053206;28;20879;-74
2024/04/07 06:14:22;;;;;;;4.00;3.47;;;18.60;99.90;;;;;;5053255;28;20471;-74
2024/04/07 06:16:51;;;;;;;4.13;3.83;;;18.60;99.90;;;;;;5053042;28;20471;-72
2024/04/07 06:19:17;;;;;;;4.70;4.40;;;18.60;99.90;;;;;;5053342;28;20471;-73
2024/04/07 06:21:44;;;;;;;5.03;3.93;;;18.70;99.90;;;;;;5053011;28;21044;-73
2024/04/07 06:24:10;;;;;;;3.70;3.40;;;18.70;99.90;;;;;;5053198;28;20217;-72
2024/04/07 06:26:37;;;;;;;9.53;3.53;;;18.80;99.90;;;;;;5053219;28;20962;-73
2024/04/07 06:29:03;;;;;;;5.07;3.97;;;18.90;99.90;;;;;;5052722;28;20467;-73
2024/04/07 06:31:34;;;;;;;4.53;4.13;;;18.90;99.90;;;;;;5053518;28;20469;-73
2024/04/07 06:33:59;;;;;;;5.03;4.63;;;19.00;99.90;;;;;;5052648;28;20459;-73
2024/04/07 06:36:27;;;;;;;7.67;6.50;;;19.00;99.90;;;;;;5052912;28;20464;-72
2024/04/07 06:38:53;;;;;;;6.90;6.33;;;19.10;99.90;;;;;;5052656;28;20471;-73
2024/04/07 06:41:20;;;;;;;7.27;6.37;;;19.20;99.90;;;;;;5052973;28;20528;-72
2024/04/07 06:43:46;;;;;;;6.00;5.50;;;19.20;99.90;;;;;;5052261;28;20474;-73
2024/04/07 06:46:13;;;;;;;7.10;5.53;;;19.20;99.90;;;;;;5053047;28;20478;-72
2024/04/07 06:48:40;;;;;;;6.80;4.00;;;19.30;99.90;;;;;;5052913;28;20944;-73
2024/04/07 06:51:07;;;;;;;4.03;3.73;;;19.40;99.90;;;;;;5055832;28;20481;-73
2024/04/07 06:53:33;;;;;;;4.43;4.10;;;19.50;99.90;;;;;;5057341;28;20524;-73
2024/04/07 06:56:00;;;;;;;4.83;4.37;;;19.50;99.90;;;;;;5052328;28;21120;-73
2024/04/07 06:58:26;;;;;;;4.33;4.03;;;19.60;99.90;;;;;;5052534;28;20463;-73
2024/04/07 07:00:53;;;;;;;4.90;4.40;;;19.70;99.90;;;;;;5052644;28;20465;-73
2024/04/07 07:03:19;;;;;;;4.77;4.27;;;19.80;99.90;;;;;;5052230;28;20473;-73
2024/04/07 07:05:49;;;;;;;5.87;5.37;;;19.80;99.90;;;;;;5052363;28;20467;-73
2024/04/07 07:08:15;;;;;;;5.83;5.30;;;19.90;99.90;;;;;;5052165;28;20471;-74
2024/04/07 07:10:42;;;;;;;5.20;4.80;;;20.00;99.90;;;;;;5051862;28;20479;-73
2024/04/07 07:13:08;;;;;;;5.27;4.77;;;20.00;99.90;;;;;;5052307;28;20459;-73
2024/04/07 07:15:35;;;;;;;3.80;3.50;;;20.10;99.90;;;;;;5052523;28;20473;-73
2024/04/07 07:18:01;;;;;;;4.23;3.93;;;20.20;99.90;;;;;;5051746;28;20475;-72
2024/04/07 07:20:28;;;;;;;4.00;3.70;;;20.20;99.90;;;;;;5052529;28;20463;-72
2024/04/07 07:22:55;;;;;;;7.10;5.30;;;20.30;99.90;;;;;;5051963;28;20481;-72
2024/04/07 07:25:22;;;;;;;4.80;4.40;;;20.30;99.90;;;;;;5051780;28;20475;-72
2024/04/07 07:27:48;;;;;;;6.20;5.60;;;20.30;99.90;;;;;;5052057;28;20949;-72
2024/04/07 07:30:15;;;;;;;5.77;5.37;;;20.40;99.90;;;;;;5052454;28;20466;-72
2024/04/07 07:32:41;;;;;;;5.67;4.97;;;20.50;99.90;;;;;;5052462;28;20962;-72
2024/04/07 07:35:08;;;;;;;6.13;5.17;;;20.60;99.90;;;;;;5051988;28;20473;-74
2024/04/07 07:37:34;;;;;;;5.00;4.60;;;20.60;99.90;;;;;;5052040;28;20467;-74
2024/04/07 07:40:02;;;;;;;5.30;4.80;;;20.70;99.90;;;;;;5051971;28;20474;-73
2024/04/07 07:42:29;;;;;;;4.57;4.17;;;20.70;99.90;;;;;;5052299;28;20517;-73
2024/04/07 07:44:56;;;;;;;4.00;3.70;;;20.80;99.90;;;;;;5051809;28;20463;-72
2024/04/07 07:47:22;;;;;;;4.03;3.73;;;20.80;99.90;;;;;;5052308;28;20455;-73
2024/04/07 07:49:49;;;;;;;3.97;3.67;;;20.90;99.90;;;;;;5051936;28;20467;-73
2024/04/07 07:52:15;;;;;;;5.37;4.63;;;21.00;99.90;;;;;;5052079;28;20458;-73
2024/04/07 07:54:42;;;;;;;5.80;5.40;;;21.00;99.90;;;;;;5052140;28;20469;-73
2024/04/07 07:57:10;;;;;;;7.27;6.67;;;21.10;99.90;;;;;;5051590;28;20228;-73
2024/04/07 07:59:36;;;;;;;6.47;5.83;;;21.10;99.90;;;;;;5051922;28;20471;-73
2024/04/07 08:02:03;;;;;;;6.30;5.70;;;21.20;99.90;;;;;;5051784;28;20790;-73
2024/04/07 08:04:29;;;;;;;5.50;4.97;;;21.20;99.90;;;;;;5052117;28;20826;-72
2024/04/07 08:06:57;;;;;;;5.33;4.83;;;21.30;99.90;;;;;;5051610;28;20466;-72
2024/04/07 08:09:24;;;;;;;4.03;3.73;;;21.30;99.90;;;;;;5051595;28;20548;-72
2024/04/07 08:11:51;;;;;;;5.00;4.60;;;21.40;99.90;;;;;;5051656;28;20486;-73
2024/04/07 08:14:19;;;;;;;6.87;6.03;;;21.40;99.90;;;;;;5052043;28;20469;-73
2024/04/07 08:16:47;;;;;;;8.23;7.53;;;21.40;99.90;;;;;;5051809;28;20805;-73
2024/04/07 08:19:15;;;;;;;6.60;5.93;;;21.40;99.90;;;;;;5054854;28;20469;-74
2024/04/07 08:21:42;;;;;;;5.97;5.47;;;21.40;99.90;;;;;;5056309;28;20477;-72
2024/04/07 08:24:10;;;;;;;7.13;6.43;;;21.50;99.90;;;;;;5054551;28;26540;-73
2024/04/07 08:26:37;;;;;;;7.17;6.47;;;21.50;99.90;;;;;;5055430;28;20466;-72
2024/04/07 08:29:07;;;;;;;7.67;7.07;;;21.60;99.90;;;;;;5055033;28;20471;-73
2024/04/07 08:31:36;;;;;;;6.57;6.00;;;21.60;99.90;;;;;;5055378;28;20478;-73
2024/04/07 08:34:02;;;;;;;4.47;3.80;;;21.60;99.90;;;;;;5054897;28;20542;-73
2024/04/07 08:36:29;;;;;;;3.83;3.10;;;21.70;99.90;;;;;;5055597;28;20868;-73
2024/04/07 08:38:55;;;;;;;4.50;2.93;;;21.80;99.90;;;;;;5054997;28;20467;-73
2024/04/07 08:41:22;;;;;;;4.50;4.17;;;21.90;99.90;;;;;;5055353;28;20948;-73
2024/04/07 08:43:49;;;;;;;4.10;3.70;;;22.00;99.80;;;;;;5055030;28;20221;-74
2024/04/07 08:46:17;;;;;;;4.37;3.17;;;22.10;99.10;;;;;;5053857;28;20455;-73
2024/04/07 08:48:50;;;;;;;3.50;3.03;;;22.20;98.30;;;;;;5055333;28;20491;-74
2024/04/07 08:51:18;;;;;;;4.00;3.40;;;22.20;98.00;;;;;;5054787;28;20532;-72
2024/04/07 08:53:44;;;;;;;3.20;2.53;;;22.30;97.80;;;;;;5055038;28;20463;-73
2024/04/07 08:56:13;;;;;;;5.13;4.70;;;22.30;97.80;;;;;;5054276;28;20837;-73
2024/04/07 08:58:40;;;;;;;4.53;3.10;;;22.40;97.60;;;;;;5054853;28;20475;-75
2024/04/07 09:01:12;;;;;;;3.27;2.60;;;22.50;97.60;;;;;;5054511;28;20467;-74
2024/04/07 09:03:38;;;;;;;6.53;3.47;;;22.50;97.30;;;;;;5054545;28;20468;-73
2024/04/07 09:06:06;;;;;;;3.93;2.60;;;22.60;97.00;;;;;;5054525;28;20478;-73
2024/04/07 09:08:32;;;;;;;2.57;2.37;;;22.70;97.00;;;;;;5054550;28;20814;-73
2024/04/07 09:10:59;;;;;;;4.30;3.77;;;22.80;97.30;;;;;;5054116;28;20466;-73
2024/04/07 09:13:28;;;;;;;3.20;2.90;;;22.90;96.90;;;;;;5054716;28;20790;-74
2024/04/07 09:15:55;;;;;;;3.07;2.77;;;23.00;96.90;;;;;;5054087;28;20534;-73
2024/04/07 09:18:22;;;;;;;7.73;2.60;;;23.00;96.60;;;;;;5054255;28;20532;-72
2024/04/07 09:20:50;;;;;;;3.70;2.67;;;23.10;96.40;;;;;;5054737;28;21019;-72
2024/04/07 09:23:17;;;;;;;3.90;3.23;;;23.10;96.10;;;;;;5054005;28;20538;-73
2024/04/07 09:25:44;;;;;;;3.80;2.80;;;23.20;96.10;;;;;;5054452;28;20505;-73
2024/04/07 09:28:10;;;;;;;3.27;3.00;;;23.20;95.80;;;;;;5053865;28;20464;-73
2024/04/07 09:30:37;;;;;;;6.43;5.90;;;23.20;95.70;;;;;;5054347;28;20475;-73
2024/04/07 09:33:07;;;;;;;6.67;5.70;;;23.20;95.80;;;;;;5053874;28;20483;-73
2024/04/07 09:35:35;;;;;;;4.80;3.10;;;23.20;95.80;;;;;;5053886;28;21085;-73
2024/04/07 09:38:00;;;;;;;4.30;3.30;;;23.30;95.90;;;;;;5053601;28;20510;-72
2024/04/07 09:40:29;;;;;;;4.27;3.67;;;23.30;95.80;;;;;;5054446;28;20455;-73
2024/04/07 09:42:59;;;;;;;3.43;3.10;;;23.40;95.70;;;;;;5054046;28;20473;-73
2024/04/07 09:45:26;;;;;;;4.17;2.80;;;23.40;95.10;;;;;;5053986;28;20986;-72
2024/04/07 09:47:57;;;;;;;4.20;2.77;;;23.40;94.90;;;;;;5053923;28;20475;-73
2024/04/07 09:50:33;;;;;;;4.27;2.70;;;23.40;94.80;;;;;;5057188;28;20497;-73
2024/04/07 09:53:08;;;;;;;3.43;3.13;;;23.30;95.00;;;;;;5057368;28;20532;-73
2024/04/07 09:55:40;;;;;;;5.53;4.00;;;23.40;95.20;;;;;;5054202;28;20963;-73
2024/04/07 09:58:08;;;;;;;6.43;5.80;;;23.40;95.40;;;;;;5061870;28;20467;-72
2024/04/07 10:00:36;;;;;;;4.47;3.00;;;23.40;95.50;;;;;;5053974;28;20467;-73
2024/04/07 10:03:03;;;;;;;11.43;5.00;;;23.40;95.70;;;;;;5053295;28;20467;-73
2024/04/07 10:05:30;;;;;;;6.53;5.80;;;23.50;95.60;;;;;;5053576;28;20467;-73
2024/04/07 10:07:57;;;;;;;4.50;4.10;;;23.50;95.40;;;;;;5053348;28;20467;-73
2024/04/07 10:10:25;;;;;;;3.60;3.20;;;23.50;95.20;;;;;;5053587;28;20459;-72
2024/04/07 10:12:54;;;;;;;4.63;3.87;;;23.40;94.90;;;;;;5053250;28;20467;-72
2024/04/07 10:15:21;;;;;;;6.73;3.80;;;23.40;94.80;;;;;;5053636;28;20957;-72
2024/04/07 10:17:48;;;;;;;6.53;4.83;;;23.30;94.80;;;;;;5052733;28;20503;-72
2024/04/07 10:20:19;;;;;;;4.67;3.90;;;23.30;94.80;;;;;;5053231;28;20471;-73
2024/04/07 10:22:45;;;;;;;12.00;5.17;;;23.30;94.80;;;;;;5053117;28;20490;-73
2024/04/07 10:25:12;;;;;;;7.67;4.80;;;23.30;94.90;;;;;;5053505;28;20459;-72
2024/04/07 10:27:43;;;;;;;6.23;5.53;;;23.20;95.00;;;;;;5053372;28;20477;-72
2024/04/07 10:30:12;;;;;;;6.40;5.30;;;23.20;95.10;;;;;;5053095;28;20513;-74
2024/04/07 10:32:40;;;;;;;5.20;4.70;;;23.20;95.30;;;;;;5053231;28;20785;-72
2024/04/07 10:35:08;;;;;;;4.40;3.67;;;23.20;95.40;;;;;;5052663;28;20444;-72
2024/04/07 10:37:35;;;;;;;5.50;3.63;;;23.20;95.40;;;;;;5053121;28;20471;-73
2024/04/07 10:40:05;;;;;;;5.63;3.30;;;23.20;95.30;;;;;;5052465;28;20528;-73
2024/04/07 10:42:31;;;;;;;3.67;2.70;;;23.20;95.20;;;;;;5053353;28;20485;-73
2024/04/07 10:45:00;;;;;;;3.90;3.07;;;23.20;95.30;;;;;;5052446;28;20848;-73
2024/04/07 10:47:27;;;;;;;6.27;5.67;;;23.20;95.40;;;;;;5052398;28;20497;-73
2024/04/07 10:49:56;;;;;;;6.30;5.17;;;23.10;95.50;;;;;;5052659;28;20829;-73
2024/04/07 10:52:26;;;;;;;6.90;4.80;;;23.10;95.60;;;;;;5052958;28;20463;-72
2024/04/07 10:54:54;;;;;;;4.67;4.27;;;23.10;95.80;;;;;;5052289;28;20987;-74
2024/04/07 10:57:20;;;;;;;4.60;4.10;;;23.10;95.90;;;;;;5052669;28;20976;-73
2024/04/07 10:59:47;;;;;;;6.10;4.53;;;23.00;96.00;;;;;;5052682;28;20468;-73
2024/04/07 11:02:14;;;;;;;4.73;4.23;;;23.10;96.20;;;;;;5060709;28;20216;-72
2024/04/07 11:04:43;;;;;;;5.20;4.27;;;23.10;96.10;;;;;;5052717;28;20545;-73
2024/04/07 11:07:10;;;;;;;6.07;5.47;;;23.10;95.90;;;;;;5052272;28;20455;-74
2024/04/07 11:09:39;;;;;;;4.73;3.93;;;23.00;96.10;;;;;;5052459;28;20473;-73
2024/04/07 11:12:06;;;;;;;5.93;3.60;;;23.00;96.30;;;;;;5052456;28;20487;-73
2024/04/07 11:14:34;;;;;;;5.13;3.70;;;23.00;96.40;;;;;;5052313;28;21034;-73
2024/04/07 11:17:02;;;;;;;3.83;3.30;;;23.00;96.60;;;;;;5051837;28;20475;-72
2024/04/07 11:19:29;;;;;;;4.40;4.00;;;23.00;96.80;;;;;;5052474;28;20461;-73
2024/04/07 11:21:56;;;;;;;3.43;3.13;;;23.00;97.00;;;;;;5052205;28;20471;-74
2024/04/07 11:24:24;;;;;;;6.13;3.10;;;23.00;97.20;;;;;;5052436;28;20528;-73
2024/04/07 11:26:50;;;;;;;3.70;3.20;;;23.00;97.20;;;;;;5052373;28;20468;-74
2024/04/07 11:29:17;;;;;;;3.40;3.00;;;23.00;97.10;;;;;;5051872;28;20443;-72
2024/04/07 11:31:50;;;;;;;3.50;2.57;;;23.00;96.80;;;;;;5052408;28;20459;-73
2024/04/07 11:34:20;;;;;;;2.40;2.20;;;23.00;96.60;;;;;;5052046;28;20462;-72
2024/04/07 11:36:47;;;;;;;4.10;3.30;;;23.10;96.90;;;;;;5052461;28;20471;-73
2024/04/07 11:39:16;;;;;;;3.20;2.77;;;23.10;97.00;;;;;;5051523;28;20543;-73
2024/04/07 11:41:42;;;;;;;5.10;3.13;;;23.10;97.10;;;;;;5052223;28;20467;-74
2024/04/07 11:44:09;;;;;;;4.20;3.90;;;23.10;97.10;;;;;;5051632;28;20473;-73
2024/04/07 11:46:35;;;;;;;4.30;3.50;;;23.20;97.00;;;;;;5052020;28;20529;-74
2024/04/07 11:49:02;;;;;;;5.43;3.03;;;23.20;97.10;;;;;;5051955;28;20471;-72
2024/04/07 11:51:28;;;;;;;2.77;2.10;;;23.20;96.90;;;;;;5052119;28;20463;-72
2024/04/07 11:53:55;;;;;;;4.00;2.77;;;23.20;96.90;;;;;;5051610;28;20468;-72
2024/04/07 11:56:23;;;;;;;3.97;2.80;;;23.20;96.70;;;;;;5052140;28;20943;-72
2024/04/07 11:58:50;;;;;;;2.33;2.00;;;23.20;96.40;;;;;;5055438;28;20476;-73
2024/04/07 12:01:16;;;;;;;2.33;2.17;;;23.20;95.90;;;;;;5055458;28;20462;-72
2024/04/07 12:03:44;;;;;;;2.33;2.10;;;23.20;95.80;;;;;;5055961;28;20467;-72
2024/04/07 12:06:11;;;;;;;3.83;3.40;;;23.20;95.90;;;;;;5055287;28;20815;-72
2024/04/07 12:08:38;;;;;;;4.57;3.60;;;23.20;96.50;;;;;;5055779;28;20475;-72
2024/04/07 12:11:04;;;;;;;3.97;3.57;;;23.20;96.60;;;;;;5055363;28;20478;-72
2024/04/07 12:13:32;;;;;;;3.47;3.17;;;23.20;96.40;;;;;;5055721;28;20542;-73
2024/04/07 12:15:58;;;;;;;11.13;3.67;;;23.20;96.60;;;;;;5055514;28;20477;-72
2024/04/07 12:18:25;;;;;;;5.17;3.60;;;23.20;96.80;;;;;;5055502;28;20458;-72
2024/04/07 12:20:51;;;;;;;3.70;2.50;;;23.10;97.10;;;;;;5055622;28;20998;-73
2024/04/07 12:23:18;;;;;;;4.10;2.70;;;23.10;97.50;;;;;;5055249;28;20474;-72
2024/04/07 12:25:44;;;;;;;5.20;2.97;;;23.20;97.70;;;;;;5055494;28;20471;-73
2024/04/07 12:28:14;;;;;;;2.97;2.70;;;23.20;97.60;;;;;;5055024;28;20516;-73
2024/04/07 12:30:42;;;;;;;5.50;3.20;;;23.20;97.50;;;;;;5055473;28;20472;-72
2024/04/07 12:33:09;;;;;;;2.83;2.33;;;23.20;97.60;;;;;;5055247;28;20474;-73
2024/04/07 12:35:35;;;;;;;2.87;2.60;;;23.20;97.80;;;;;;5055578;28;20774;-73
2024/04/07 12:38:03;;;;;;;3.20;2.93;;;23.20;97.90;;;;;;5054948;28;20542;-73
2024/04/07 12:40:29;;;;;;;5.20;4.13;;;23.30;98.30;;;;;;5055175;28;20463;-74
2024/04/07 12:42:56;;;;;;;2.50;2.30;;;23.20;97.10;;;;;;5055149;28;20555;-73
2024/04/07 12:45:22;;;;;;;2.60;2.40;;;23.20;96.60;;;;;;5054892;28;20463;-73
2024/04/07 12:47:50;;;;;;;7.13;3.23;;;23.20;96.50;;;;;;5054045;28;20467;-73
2024/04/07 12:50:16;;;;;;;4.20;2.53;;;23.20;96.10;;;;;;5053645;28;20673;-72